Air Navigation Services of Czech Republic  
Last data update:  25.01.2022 13:13:29 UTC česká verze
   METEO Page displayed:  25.01.2022 13:14:21 UTC  
vysvětlivky
METAR EDDB 251250Z 28011KT 9000 BKN009 04/03 Q1030 NOSIG=
METAR EDDC 251250Z 31008KT 4700 -RADZ BR BKN004 BKN007 02/01 Q1030 TEMPO 8000=
METAR EDDE 251250Z 32005KT 9999 -DZ OVC008 01/00 Q1031 NOSIG=
METAR EDDF 251250Z 16004KT 9000 SCT004 OVC010 01/M01 Q1033 TEMPO BKN004=
METAR EDDM 251250Z 31005KT 270V350 7000 BKN005 M01/M02 Q1031 BECMG SCT005=
METAR EDDN 251250Z VRB02KT 1500 BR OVC002 M01/M01 Q1032 NOSIG=
METAR EDDP 251250Z 32005KT 9999 BKN011 03/01 Q1032 TEMPO BKN015=
METAR EDQM 251250Z VRB02KT 6000 BKN003 OVC004 M01/M01 Q1030=
METAR EPBY 251300Z 28011KT 9999 BKN006 OVC008 04/03 Q1025=
METAR EPGD 251300Z 31011KT 9999 -SHRA FEW003 BKN010 05/03 Q1023=
METAR EPKK 251300Z 24008KT 7000 OVC008 01/M00 Q1027=
METAR EPKT 251300Z 27007KT 9999 SCT008 BKN024 01/M00 Q1026=
METAR EPLL 251300Z 26010KT 2900 DZ BR OVC002 02/01 Q1026=
METAR EPPO 251300Z 28012KT 7000 OVC005 04/03 Q1027=
METAR EPRZ 251300Z 27013KT 9999 BKN012 01/M01 Q1025=
METAR EPWA 251300Z 28014KT 9999 BKN006 02/02 Q1024 NOSIG=
METAR EPWR 251300Z 30010KT 9999 FEW014 BKN024 04/02 Q1029=
METAR LHBP 251300Z 22006KT 180V270 9999 BKN020 BKN065 02/M04 Q1029 NOSIG=
METAR LHSM 251245Z AUTO VRB01KT 6000 BKN030 02/M02 Q1031 NOSIG=
METAR LKBC NIL
METAR LKCV 251300Z 26009KT 9999 -DZ BKN012 OVC019 03/00 Q1030 NOSIG RMK GRN GRN=
METAR LKKB 251300Z 26006KT 9999 OVC020 03/00 Q1030 NOSIG RMK WHT WHT=
METAR LKKU 251300Z 20006KT 2700 BR SCT005 OVC041 01/00 Q1029=
METAR LKKV 251300Z 26005KT 230V290 9999 OVC006 M00/M02 Q1029 RMK REG QNH 1026=
METAR LKLN 251300Z AUTO 29004KT 250V330 9999 OVC012 02/M01 Q1031=
METAR LKMT 251300Z 23007KT 1500 -SN BR SCT015 OVC019 01/01 Q1028 TEMPO 3500 -SN BR RMK REG QNH 1026=
METAR LKNA 251300Z 29007KT 6000 -DZ BKN006 OVC015 01/M00 Q1029 NOSIG RMK YLO YLO=
METAR LKPD 251300Z 28011KT 9999 -DZ SCT008 OVC020 03/01 Q1029 NOSIG RMK WHT WHT=
METAR LKPJ 251300Z AUTO 24003KT 3100 BR OVC039/// 02/01 Q1029=
METAR LKPR 251300Z 28006KT 9999 FEW014 OVC017 02/M00 Q1030 NOSIG RMK REG QNH 1026=
METAR LKTB 251300Z 24002KT 2600 -DZ BR SCT025 OVC036 02/01 Q1029 NOSIG RMK REG QNH 1026=
METAR LKVO 251300Z 28008KT 9999 OVC019 03/00 Q1030=
METAR LOWI 251250Z VRB02KT CAVOK 07/M03 Q1030 NOSIG=
METAR LOWL 251250Z 26009KT 240V300 8000 FEW006 BKN009 01/M01 Q1031 TEMPO SCT007 BKN012=
METAR LOWS 251250Z 31003KT 270V030 3200 BR FEW001 BKN003 M01/M01 Q1031 NOSIG=
METAR LOWW 251250Z 29010KT 9999 FEW010 SCT013 BKN024 02/M00 Q1030 NOSIG=
METAR LZIB 251300Z 28009KT 9999 FEW018 BKN036 04/00 Q1030 NOSIG=
METAR LZKZ 251300Z 17006KT 140V200 9999 BKN047 M03/M07 Q1028 NOSIG=
METAR LZMC 251300Z 30008KT 9999 FEW007 OVC012 03/01 Q1030=
METAR LZPP 251300Z VRB01KT 7000 SCT010 OVC042 01/M01 Q1029=
METAR LZSL 251300Z 00000KT 9999 BKN042 M00/M07 Q1027=
METAR LZTT 251300Z 25012KT 9999 FEW036 00/M05 Q1024 NOSIG=
METAR LZZI 251300Z VRB01KT 8000 OVC023 M01/M04 Q1028=